Tacoma, WA

5:43 PM PST on November 27, 2014 (GMT -0800)
Tacoma | Change Station
CLOSE
Current Station
Airport
Location: Tacoma,
Elevation: 322 ft
Nearby Weather Stations
Active Advisory: Areal Flood Watch, Special Statement Active Notice: Record Report

Elev 322 ft 47.14 °N, 122.48 °W | Updated 13 minutes ago

Rain
Rain
54 °F
Feels Like 54 °F
N
10
Wind Variable Wind from South

Today
High -- | Low -- °F
--% Chance of Precip.
Yesterday
High -- | Low -- °F
Precip. -- in
7:30 AM 4:23 PM
Waxing Crescent, 35% visible
Pressure 29.78 in
Visibility 10.0 miles
Clouds Few 4400 ft
Overcast 6500 ft
Dew Point 54 °F
Humidity 100%
Rainfall 0.08 in
Snow Depth Not available.
UV 0 out of 12
Pollen .10 out of 12
Air Quality Not available.
Flu Activity Not available.
SPECI KTCM 280130Z AUTO 18009KT 10SM -RA FEW044 OVC065 12/12 A2978 RMK AO2 RAE0101B0130 $

More Conditions Fewer Conditions

Pressure 29.78 in
Visibility 10.0 miles
Clouds Few 4400 ft
Overcast 6500 ft
Dew Point 54 °F
Humidity 100%
Rainfall 0.08 in
Snow Depth Not available.
UV 0 out of 12
Pollen .10 out of 12
Air Quality Not available.
Flu Activity Not available.
SPECI KTCM 280130Z AUTO 18009KT 10SM -RA FEW044 OVC065 12/12 A2978 RMK AO2 RAE0101B0130 $

More Conditions Fewer Conditions

10-Day Weather Forecast

Almanac

Astronomy

Nov. 27, 2014 Rise Set
Actual Time
Civil Twilight
Nautical Twilight
Astronomical Twilight
Moon
Length of Visible Light
Length of Day
Tomorrow will be .
, % of the Moon is Illuminated

Today's Extremes

State Highs State Lows

Community

WunderPhotos

Upload Photos

1,774,151 photos uploaded!

WunderBlogs® & News

Nearby

Air Quality

  Air Quality AQ Index Pollutant
Not available.

Snow Depth

Station Depth Elevation

Earthquake Activity

City Distance Mag. Time & Date
Minimum magnitude displayed is 2.5.

Coastal Water Temperatures

Place Temperature

Nearby Weather Stations